createdAt,value
2019-05-03T00:02:52.180Z,9.30
2019-05-03T00:05:28.768Z,9.30
2019-05-03T00:08:05.119Z,9.30
2019-05-03T00:10:37.332Z,9.30
2019-05-03T00:13:07.555Z,9.30
2019-05-03T00:16:05.092Z,9.30
2019-05-03T00:18:35.233Z,9.30
2019-05-03T00:21:05.203Z,9.30
2019-05-03T00:23:35.094Z,9.30
2019-05-03T00:26:05.048Z,9.30
2019-05-03T00:28:35.244Z,9.40
2019-05-03T00:31:05.277Z,9.30
2019-05-03T00:33:37.053Z,9.30
2019-05-03T00:36:25.011Z,9.30
2019-05-03T00:38:58.698Z,9.30
2019-05-03T00:41:28.668Z,9.20
2019-05-03T00:43:58.505Z,9.30
2019-05-03T00:46:28.320Z,9.30
2019-05-03T00:48:58.153Z,9.30
2019-05-03T00:51:27.973Z,9.30
2019-05-03T00:53:57.953Z,9.30
2019-05-03T00:56:27.840Z,9.40
2019-05-03T00:58:59.304Z,9.40
2019-05-03T01:01:29.121Z,9.40
2019-05-03T01:03:59.099Z,9.30
2019-05-03T01:06:29.067Z,9.30
2019-05-03T01:08:59.256Z,9.40
2019-05-03T01:11:29.072Z,9.40
2019-05-03T01:13:59.225Z,9.30
2019-05-03T01:16:29.099Z,9.30
2019-05-03T01:18:59.172Z,7.10
2019-05-03T01:21:29.061Z,9.30
2019-05-03T01:23:58.958Z,9.40
2019-05-03T01:26:28.861Z,9.30
2019-05-03T01:28:59.010Z,9.30
2019-05-03T01:31:28.890Z,9.30
2019-05-03T01:33:58.706Z,9.30
2019-05-03T01:36:28.513Z,9.30
2019-05-03T01:38:58.345Z,9.30
2019-05-03T01:41:28.168Z,9.30
2019-05-03T01:43:58.064Z,9.40
2019-05-03T01:46:27.952Z,9.40
2019-05-03T01:52:02.948Z,9.40
2019-05-03T01:54:32.863Z,9.30
2019-05-03T02:05:18.504Z,9.40
2019-05-03T02:07:48.725Z,9.40
2019-05-03T02:15:17.312Z,9.40
2019-05-03T02:17:47.132Z,9.30
2019-05-03T02:20:16.966Z,9.30
2019-05-03T02:22:46.866Z,6.20
2019-05-03T02:25:16.708Z,9.30
2019-05-03T02:27:46.560Z,9.30
2019-05-03T02:30:16.628Z,9.30
2019-05-03T02:32:46.690Z,9.30
2019-05-03T02:35:16.583Z,9.20
2019-05-03T02:37:52.998Z,9.30
2019-05-03T02:40:24.551Z,9.30
2019-05-03T02:46:05.827Z,9.30
2019-05-03T02:48:45.832Z,9.30
2019-05-03T02:51:15.937Z,9.30
2019-05-03T02:58:46.881Z,9.30
2019-05-03T03:01:17.279Z,9.30
2019-05-03T03:03:47.594Z,9.30
2019-05-03T03:06:19.684Z,9.30
2019-05-03T03:08:51.213Z,9.30
2019-05-03T03:11:25.871Z,9.30
2019-05-03T03:13:57.418Z,9.30
2019-05-03T03:16:30.492Z,9.30
2019-05-03T03:19:06.204Z,9.30
2019-05-03T03:21:39.152Z,9.30
2019-05-03T03:24:12.633Z,9.30
2019-05-03T03:26:44.485Z,9.20
2019-05-03T03:31:58.828Z,9.20
2019-05-03T03:34:38.002Z,9.20
2019-05-03T03:37:09.976Z,9.30
2019-05-03T03:39:37.218Z,9.20
2019-05-03T03:42:08.892Z,9.20
2019-05-03T03:44:39.167Z,9.20
2019-05-03T03:47:12.143Z,9.20
2019-05-03T03:49:46.293Z,9.30
2019-05-03T03:52:17.071Z,9.20
2019-05-03T03:54:49.705Z,9.30
2019-05-03T03:57:20.881Z,9.20
2019-05-03T04:02:20.566Z,9.20
2019-05-03T04:04:50.850Z,9.10
2019-05-03T04:07:21.132Z,9.10
2019-05-03T04:09:51.301Z,9.10
2019-05-03T04:12:22.409Z,9.10
2019-05-03T04:14:58.239Z,9.20
2019-05-03T04:20:32.953Z,9.10
2019-05-03T04:23:05.410Z,9.10
2019-05-03T04:25:36.112Z,9.10
2019-05-03T04:30:36.597Z,9.10
2019-05-03T04:33:06.781Z,9.10
2019-05-03T04:35:36.880Z,9.10
2019-05-03T04:38:06.867Z,9.10
2019-05-03T04:40:36.707Z,9.10
2019-05-03T04:43:06.636Z,9.10
2019-05-03T04:45:36.930Z,7.70
2019-05-03T04:48:07.051Z,9.20
2019-05-03T04:50:37.204Z,9.20
2019-05-03T04:53:07.222Z,9.20
2019-05-03T04:55:37.035Z,9.30
2019-05-03T04:58:06.847Z,9.30
2019-05-03T05:00:37.053Z,9.40
2019-05-03T05:05:36.575Z,9.50
2019-05-03T05:08:06.600Z,9.60
2019-05-03T05:10:36.558Z,9.70
2019-05-03T05:13:06.574Z,9.80
2019-05-03T05:15:36.417Z,9.80
2019-05-03T05:18:15.938Z,9.70
2019-05-03T05:20:50.902Z,9.70
2019-05-03T05:23:21.045Z,9.70
2019-05-03T05:26:01.112Z,9.70
2019-05-03T05:28:44.603Z,9.80
2019-05-03T05:31:15.128Z,9.80
2019-05-03T05:33:45.138Z,9.80
2019-05-03T05:36:15.402Z,9.80
2019-05-03T05:38:45.342Z,9.80
2019-05-03T05:43:45.597Z,9.80
2019-05-03T05:48:49.673Z,9.90
2019-05-03T05:53:48.745Z,9.80
2019-05-03T05:56:47.221Z,9.70
2019-05-03T05:59:24.674Z,9.70
2019-05-03T06:01:57.935Z,9.90
2019-05-03T06:07:15.237Z,9.70
2019-05-03T06:10:19.274Z,9.90
2019-05-03T06:12:58.121Z,9.90
2019-05-03T06:15:49.398Z,9.80
2019-05-03T06:18:27.448Z,9.80
2019-05-03T06:21:04.637Z,9.80
2019-05-03T06:23:39.568Z,9.70
2019-05-03T06:26:26.956Z,9.80
2019-05-03T06:28:57.308Z,9.70
2019-05-03T06:36:44.226Z,9.60
2019-05-03T06:41:44.790Z,9.90
2019-05-03T06:51:49.503Z,9.90
2019-05-03T06:54:20.731Z,10.00
2019-05-03T06:59:24.947Z,10.90
2019-05-03T07:02:14.732Z,11.20
2019-05-03T07:10:05.086Z,10.50
2019-05-03T07:12:54.710Z,10.70
2019-05-03T07:17:55.577Z,11.50
2019-05-03T07:22:56.127Z,11.50
2019-05-03T07:25:26.002Z,11.30
2019-05-03T07:27:55.924Z,11.40
2019-05-03T07:30:25.824Z,11.40
2019-05-03T07:33:00.353Z,11.20
2019-05-03T07:35:30.168Z,11.10
2019-05-03T07:37:59.964Z,11.20
2019-05-03T07:40:29.789Z,11.40
2019-05-03T07:45:29.200Z,11.80
2019-05-03T07:47:59.025Z,12.30
2019-05-03T07:50:28.843Z,12.50
2019-05-03T07:52:58.883Z,12.70
2019-05-03T07:55:46.469Z,12.30
2019-05-03T07:58:19.726Z,12.20
2019-05-03T08:03:21.263Z,11.80
2019-05-03T08:05:51.214Z,11.60
2019-05-03T08:10:50.481Z,11.30
2019-05-03T08:13:20.461Z,10.80
2019-05-03T08:20:48.866Z,10.90
2019-05-03T08:23:27.316Z,11.00
2019-05-03T08:25:50.921Z,11.10
2019-05-03T08:28:20.963Z,11.20
2019-05-03T08:31:15.160Z,11.20
2019-05-03T08:34:04.864Z,11.50
2019-05-03T08:36:54.798Z,11.60
2019-05-03T08:41:58.424Z,12.60
2019-05-03T08:44:28.526Z,12.90
2019-05-03T08:46:59.980Z,12.70
2019-05-03T08:49:29.868Z,12.30
2019-05-03T08:51:59.825Z,11.70
2019-05-03T08:54:29.701Z,11.80
2019-05-03T08:56:59.504Z,11.70
2019-05-03T09:02:03.663Z,11.80
2019-05-03T09:04:37.445Z,11.60
2019-05-03T09:12:21.874Z,11.40
2019-05-03T09:14:51.764Z,11.70
2019-05-03T09:19:50.951Z,12.30
2019-05-03T09:22:21.103Z,11.80
2019-05-03T09:24:50.987Z,11.60
2019-05-03T09:27:20.892Z,12.00
2019-05-03T09:29:50.750Z,12.00
2019-05-03T09:32:20.556Z,12.00
2019-05-03T09:37:19.674Z,12.30
2019-05-03T09:39:49.539Z,12.60
2019-05-03T09:42:19.345Z,13.00
2019-05-03T09:44:49.215Z,13.30
2019-05-03T09:47:19.101Z,13.30
2019-05-03T09:49:49.166Z,13.20
2019-05-03T09:54:50.849Z,13.30
2019-05-03T09:57:20.736Z,13.40
2019-05-03T10:02:21.593Z,13.10
2019-05-03T10:04:51.401Z,12.90
2019-05-03T10:12:21.718Z,13.10
2019-05-03T10:22:56.386Z,13.90
2019-05-03T10:25:26.362Z,14.00
2019-05-03T10:27:56.233Z,14.00
2019-05-03T10:30:27.979Z,14.00
2019-05-03T10:33:06.791Z,14.00
2019-05-03T10:35:36.661Z,13.90
2019-05-03T10:38:06.864Z,13.90
2019-05-03T10:40:37.158Z,14.00
2019-05-03T10:43:09.502Z,13.80
2019-05-03T10:45:39.412Z,13.70
2019-05-03T10:50:38.629Z,14.00
2019-05-03T10:58:35.653Z,13.80
2019-05-03T11:01:05.677Z,14.00
2019-05-03T11:03:35.511Z,14.10
2019-05-03T11:06:05.570Z,14.00
2019-05-03T11:13:35.998Z,14.60
2019-05-03T11:16:05.925Z,14.90
2019-05-03T11:26:04.532Z,14.20
2019-05-03T11:36:47.100Z,13.70
2019-05-03T11:39:17.114Z,13.80
2019-05-03T11:41:50.041Z,13.90
2019-05-03T11:44:38.115Z,13.70
2019-05-03T11:47:08.208Z,13.50
2019-05-03T11:49:38.162Z,13.50
2019-05-03T11:52:08.149Z,13.50
2019-05-03T11:54:38.059Z,13.60
2019-05-03T11:57:15.707Z,13.90
2019-05-03T11:59:45.679Z,14.20
2019-05-03T12:02:24.801Z,14.40
2019-05-03T12:07:39.930Z,14.60
2019-05-03T12:10:17.113Z,14.20
2019-05-03T12:12:39.589Z,14.10
2019-05-03T12:15:10.249Z,14.10
2019-05-03T12:17:51.812Z,14.10
2019-05-03T12:25:16.999Z,14.20
2019-05-03T12:27:47.273Z,14.30
2019-05-03T12:30:17.233Z,14.50
2019-05-03T12:32:47.093Z,14.90
2019-05-03T12:45:15.792Z,14.50
2019-05-03T12:47:45.672Z,14.70
2019-05-03T12:50:16.767Z,14.70
2019-05-03T12:52:50.279Z,14.60
2019-05-03T13:00:35.424Z,14.30
2019-05-03T13:03:08.760Z,14.00
2019-05-03T13:05:41.273Z,13.70
2019-05-03T13:08:40.365Z,13.50
2019-05-03T13:11:10.566Z,13.40
2019-05-03T13:13:40.526Z,13.90
2019-05-03T13:18:41.993Z,14.30
2019-05-03T13:23:41.225Z,14.50
2019-05-03T13:26:11.225Z,14.40
2019-05-03T13:33:39.666Z,14.20
2019-05-03T13:36:09.564Z,14.10
2019-05-03T13:38:39.465Z,14.10
2019-05-03T13:41:09.287Z,14.30
2019-05-03T13:43:39.096Z,14.40
2019-05-03T13:48:45.458Z,14.50
2019-05-03T13:51:09.925Z,14.80
2019-05-03T13:53:39.748Z,14.50
2019-05-03T14:06:09.493Z,14.40
2019-05-03T14:11:08.940Z,14.40
2019-05-03T14:13:38.764Z,14.40
2019-05-03T14:16:08.744Z,14.70
2019-05-03T14:18:41.313Z,14.60
2019-05-03T14:21:24.858Z,14.60
2019-05-03T14:24:10.021Z,14.50
2019-05-03T14:31:39.553Z,14.40
2019-05-03T14:34:09.383Z,14.30
2019-05-03T14:36:39.303Z,14.40
2019-05-03T14:39:11.493Z,14.50
2019-05-03T14:49:09.404Z,14.00
2019-05-03T14:51:39.290Z,14.20
2019-05-03T14:59:34.657Z,14.10
2019-05-03T15:04:42.148Z,13.90
2019-05-03T15:07:12.213Z,13.80
2019-05-03T15:09:42.149Z,13.70
2019-05-03T15:12:12.046Z,13.30
2019-05-03T15:14:41.890Z,13.50
2019-05-03T15:17:11.698Z,13.50
2019-05-03T15:24:40.068Z,13.70
2019-05-03T15:27:09.893Z,13.50
2019-05-03T15:34:38.580Z,13.30
2019-05-03T15:37:35.626Z,13.10
2019-05-03T15:42:25.801Z,12.90
2019-05-03T15:50:35.586Z,12.70
2019-05-03T15:55:35.010Z,12.60
2019-05-03T15:58:04.888Z,12.60
2019-05-03T16:00:34.873Z,12.50
2019-05-03T16:03:08.884Z,12.50
2019-05-03T16:13:06.733Z,12.30
2019-05-03T16:20:39.143Z,11.80
2019-05-03T16:51:05.297Z,11.10
2019-05-03T16:53:35.160Z,11.10
2019-05-03T17:01:05.394Z,10.80
2019-05-03T17:03:41.540Z,10.60
2019-05-03T17:06:39.074Z,10.60
2019-05-03T17:12:05.565Z,10.40
2019-05-03T17:19:35.909Z,10.50
2019-05-03T18:01:06.954Z,9.90
2019-05-03T18:11:29.058Z,9.80
2019-05-03T18:13:58.873Z,9.80
2019-05-03T18:46:52.641Z,9.30
2019-05-03T19:01:49.225Z,9.20
2019-05-03T19:07:05.268Z,9.10
2019-05-03T19:09:50.592Z,9.10
2019-05-03T19:12:31.642Z,9.10
2019-05-03T19:17:48.881Z,9.00
2019-05-03T19:20:19.084Z,8.90
2019-05-03T19:22:49.225Z,8.90
2019-05-03T19:32:47.133Z,8.70
2019-05-03T19:35:16.969Z,8.70
2019-05-03T19:45:15.346Z,8.80
2019-05-03T19:55:50.586Z,8.80
2019-05-03T20:16:48.085Z,8.70
2019-05-03T20:19:21.188Z,8.70
2019-05-03T20:24:18.847Z,8.70
2019-05-03T20:26:48.670Z,8.70
2019-05-03T20:29:18.556Z,8.70
2019-05-03T20:31:48.493Z,8.80
2019-05-03T20:34:19.331Z,8.80
2019-05-03T20:36:49.234Z,8.70
2019-05-03T20:39:19.051Z,8.70
2019-05-03T20:41:48.885Z,8.70
2019-05-03T20:44:40.616Z,8.80
2019-05-03T20:47:21.139Z,8.80
2019-05-03T20:50:09.031Z,8.80
2019-05-03T20:57:37.527Z,8.80
2019-05-03T21:15:11.704Z,8.90
2019-05-03T21:17:49.501Z,8.90
2019-05-03T21:20:37.116Z,8.90
2019-05-03T21:30:41.429Z,8.80
2019-05-03T21:35:42.017Z,8.70
2019-05-03T21:38:12.120Z,8.60
2019-05-03T21:45:46.452Z,8.40
2019-05-03T21:48:24.966Z,8.40
2019-05-03T21:50:54.871Z,8.40
2019-05-03T21:53:25.128Z,8.40
2019-05-03T21:55:55.124Z,8.30
2019-05-03T21:58:25.228Z,8.20
2019-05-03T22:03:30.372Z,8.10
2019-05-03T22:10:58.921Z,8.10
2019-05-03T22:13:28.741Z,8.10
2019-05-03T22:16:11.871Z,8.00
2019-05-03T22:18:42.664Z,8.00
2019-05-03T22:24:29.820Z,8.10
2019-05-03T22:29:31.661Z,8.10
2019-05-03T22:32:01.452Z,8.10
2019-05-03T22:34:31.286Z,8.10
2019-05-03T22:37:01.241Z,8.10
2019-05-03T22:39:31.393Z,8.10
2019-05-03T22:42:01.337Z,8.10
2019-05-03T22:49:29.790Z,8.20
2019-05-03T22:51:59.609Z,8.20
2019-05-03T22:59:27.977Z,8.20
2019-05-03T23:01:57.802Z,8.20
2019-05-03T23:09:26.203Z,8.10
2019-05-03T23:11:56.220Z,8.10
2019-05-03T23:14:26.063Z,8.00
2019-05-03T23:22:04.847Z,8.10
2019-05-03T23:24:35.341Z,8.20
2019-05-03T23:27:05.314Z,8.10
2019-05-03T23:29:35.194Z,8.10
2019-05-03T23:32:05.198Z,8.00
2019-05-03T23:34:35.314Z,8.10
2019-05-03T23:37:05.592Z,8.10
2019-05-03T23:47:18.189Z,8.20
